Phoenix Sky Harbor International Airport Phoenix US
ICAO: KPHX
IATA: PHX
Category: Large
Scheduled Services: Yes

Elevation: 1135 ft
TransAlt. 18000 ft.

Airport Communications:
APP/DEP:124.1
ATIS:127.575
CLNC DEL:118.1
GND:119.75
ANG COMD POST:140
PRESCOTT RDO:122.2
TWR:118.7
UNICOM:122.95

KPHX Zoom In..

If you have problems with the map follow the link
https://www.worldairports.se/pages/airport.php?
ICAO=KPHX

Runways:

(A) RW 07L length 10300 ft width 150 ft
ILS 111.50 / hdg 78

(B) RW 07R length 7800 ft width 150 ft
ILS 110.75 / hdg 78

(C) RW 08 length 11489 ft width 150 ft
ILS 111.75 / hdg 78

(D) RW 25L length 7800 ft width 150 ft
ILS 110.75 / hdg 258

(E) RW 25R length 10300 ft width 150 ft
---- / hdg 258

(F) RW 26 length 11489 ft width 150 ft
ILS 111.75 / hdg 258

Location; KPHX
Day. 21 / Time. 05.51 Zulu
* Altimeter: 29.99
* Temperature: 18° c. 64.4°f.
* Wind from: 100° Speed 07 kn.
Dewpoint: 03° c.
Visibility: 10 Statute Miles.
Clouds: Broken 11000 ft.
Clouds: Overcast 13000 ft.

KPHX 210551Z 10007KT 10SM BKN110 OVC130 18/03 A2999 RMK AO2 SLP145 T01830033 10217 20178 56009


Wind From 100°
Speed 07 kn.

 
 
jpsmedia worldairports.se 2020   terms of use